sensor_id;sensor_type;location;lat;lon;timestamp;pressure;altitude;pressure_sealevel;temperature;humidity
34374;BME280;20637;55.770;37.592;2022-09-30T00:01:47;99463.09;;;12.24;78.31
34374;BME280;20637;55.770;37.592;2022-09-30T00:04:20;99458.69;;;12.23;77.80
34374;BME280;20637;55.770;37.592;2022-09-30T00:06:46;99469.97;;;12.26;77.76
34374;BME280;20637;55.770;37.592;2022-09-30T00:09:13;99461.03;;;12.26;78.01
34374;BME280;20637;55.770;37.592;2022-09-30T00:11:40;99467.09;;;12.28;77.92
34374;BME280;20637;55.770;37.592;2022-09-30T00:14:07;99468.28;;;12.25;77.57
34374;BME280;20637;55.770;37.592;2022-09-30T00:16:35;99472.75;;;12.18;77.69
34374;BME280;20637;55.770;37.592;2022-09-30T00:19:02;99476.69;;;12.16;77.86
34374;BME280;20637;55.770;37.592;2022-09-30T00:21:29;99468.09;;;12.12;77.74
34374;BME280;20637;55.770;37.592;2022-09-30T00:23:55;99477.38;;;12.10;78.09
34374;BME280;20637;55.770;37.592;2022-09-30T00:26:22;99488.41;;;12.08;78.14
34374;BME280;20637;55.770;37.592;2022-09-30T00:28:50;99494.53;;;12.02;78.21
34374;BME280;20637;55.770;37.592;2022-09-30T00:31:18;99495.91;;;11.98;77.97
34374;BME280;20637;55.770;37.592;2022-09-30T00:33:45;99494.41;;;11.96;78.04
34374;BME280;20637;55.770;37.592;2022-09-30T00:36:51;99496.44;;;11.93;78.00
34374;BME280;20637;55.770;37.592;2022-09-30T00:39:19;99499.72;;;11.89;78.14
34374;BME280;20637;55.770;37.592;2022-09-30T00:41:48;99504.28;;;11.88;78.04
34374;BME280;20637;55.770;37.592;2022-09-30T00:49:50;99500.25;;;11.84;77.95
34374;BME280;20637;55.770;37.592;2022-09-30T00:52:16;99505.66;;;11.84;78.26
34374;BME280;20637;55.770;37.592;2022-09-30T00:54:42;99504.13;;;11.82;77.85
34374;BME280;20637;55.770;37.592;2022-09-30T00:57:09;99513.09;;;11.82;78.14
34374;BME280;20637;55.770;37.592;2022-09-30T00:59:45;99516.31;;;11.78;78.08
34374;BME280;20637;55.770;37.592;2022-09-30T01:02:13;99513.66;;;11.70;78.34
34374;BME280;20637;55.770;37.592;2022-09-30T01:04:40;99514.84;;;11.67;77.97
34374;BME280;20637;55.770;37.592;2022-09-30T01:07:08;99512.16;;;11.67;78.28
34374;BME280;20637;55.770;37.592;2022-09-30T01:09:35;99509.28;;;11.69;78.42
34374;BME280;20637;55.770;37.592;2022-09-30T01:12:21;99511.66;;;11.72;78.44
34374;BME280;20637;55.770;37.592;2022-09-30T01:14:50;99504.72;;;11.69;78.31
34374;BME280;20637;55.770;37.592;2022-09-30T01:22:40;99500.00;;;11.71;78.73
34374;BME280;20637;55.770;37.592;2022-09-30T01:33:57;99518.38;;;11.76;78.63
34374;BME280;20637;55.770;37.592;2022-09-30T01:36:41;99512.97;;;11.76;78.58
34374;BME280;20637;55.770;37.592;2022-09-30T01:39:37;99517.16;;;11.78;78.61
34374;BME280;20637;55.770;37.592;2022-09-30T01:48:24;99509.44;;;11.75;78.24
34374;BME280;20637;55.770;37.592;2022-09-30T01:50:52;99513.63;;;11.78;78.47
34374;BME280;20637;55.770;37.592;2022-09-30T01:53:40;99511.97;;;11.69;77.83
34374;BME280;20637;55.770;37.592;2022-09-30T01:56:31;99507.94;;;11.65;78.13
34374;BME280;20637;55.770;37.592;2022-09-30T01:59:05;99503.75;;;11.62;78.28
34374;BME280;20637;55.770;37.592;2022-09-30T02:01:42;99504.94;;;11.60;78.42
34374;BME280;20637;55.770;37.592;2022-09-30T02:04:30;99510.69;;;11.57;78.61
34374;BME280;20637;55.770;37.592;2022-09-30T02:07:04;99509.00;;;11.56;78.77
34374;BME280;20637;55.770;37.592;2022-09-30T02:12:04;99511.91;;;11.54;78.93
34374;BME280;20637;55.770;37.592;2022-09-30T02:15:05;99515.41;;;11.55;79.00
34374;BME280;20637;55.770;37.592;2022-09-30T02:17:41;99504.97;;;11.52;79.00
34374;BME280;20637;55.770;37.592;2022-09-30T02:20:15;99512.22;;;11.51;78.99
34374;BME280;20637;55.770;37.592;2022-09-30T02:22:48;99514.13;;;11.51;79.27
34374;BME280;20637;55.770;37.592;2022-09-30T02:25:32;99509.72;;;11.50;79.22
34374;BME280;20637;55.770;37.592;2022-09-30T02:28:02;99511.59;;;11.49;79.30
34374;BME280;20637;55.770;37.592;2022-09-30T02:30:35;99511.75;;;11.47;79.22
34374;BME280;20637;55.770;37.592;2022-09-30T02:33:06;99506.53;;;11.46;79.21
34374;BME280;20637;55.770;37.592;2022-09-30T02:35:37;99513.44;;;11.48;79.31
34374;BME280;20637;55.770;37.592;2022-09-30T02:38:07;99500.78;;;11.49;78.75
34374;BME280;20637;55.770;37.592;2022-09-30T02:40:40;99504.00;;;11.44;79.13
34374;BME280;20637;55.770;37.592;2022-09-30T02:43:09;99505.84;;;11.44;79.20
34374;BME280;20637;55.770;37.592;2022-09-30T02:48:47;99509.03;;;11.47;79.31
34374;BME280;20637;55.770;37.592;2022-09-30T02:54:02;99512.59;;;11.48;79.60
34374;BME280;20637;55.770;37.592;2022-09-30T02:58:57;99508.88;;;11.49;78.96
34374;BME280;20637;55.770;37.592;2022-09-30T03:01:23;99516.63;;;11.52;79.58
34374;BME280;20637;55.770;37.592;2022-09-30T03:03:58;99519.81;;;11.56;79.61
34374;BME280;20637;55.770;37.592;2022-09-30T03:06:27;99525.06;;;11.57;79.60
34374;BME280;20637;55.770;37.592;2022-09-30T03:08:53;99524.22;;;11.57;79.30
34374;BME280;20637;55.770;37.592;2022-09-30T03:11:22;99524.38;;;11.55;79.41
34374;BME280;20637;55.770;37.592;2022-09-30T03:22:11;99521.66;;;11.55;79.33
34374;BME280;20637;55.770;37.592;2022-09-30T03:24:47;99524.56;;;11.54;79.27
34374;BME280;20637;55.770;37.592;2022-09-30T03:27:34;99519.53;;;11.51;79.00
34374;BME280;20637;55.770;37.592;2022-09-30T03:30:04;99527.78;;;11.49;79.26
34374;BME280;20637;55.770;37.592;2022-09-30T03:32:48;99521.53;;;11.48;79.22
34374;BME280;20637;55.770;37.592;2022-09-30T03:41:07;99539.47;;;11.50;79.04
34374;BME280;20637;55.770;37.592;2022-09-30T03:43:56;99529.66;;;11.48;78.88
34374;BME280;20637;55.770;37.592;2022-09-30T03:48:57;99528.66;;;11.50;79.38
34374;BME280;20637;55.770;37.592;2022-09-30T03:51:26;99526.31;;;11.46;78.97
34374;BME280;20637;55.770;37.592;2022-09-30T03:53:55;99513.81;;;11.45;79.17
34374;BME280;20637;55.770;37.592;2022-09-30T03:56:25;99520.03;;;11.46;78.99
34374;BME280;20637;55.770;37.592;2022-09-30T03:58:51;99517.34;;;11.46;78.74
34374;BME280;20637;55.770;37.592;2022-09-30T04:01:19;99514.66;;;11.46;78.90
34374;BME280;20637;55.770;37.592;2022-09-30T04:03:52;99520.22;;;11.44;79.13
34374;BME280;20637;55.770;37.592;2022-09-30T04:06:20;99516.66;;;11.44;78.85
34374;BME280;20637;55.770;37.592;2022-09-30T04:08:46;99514.16;;;11.42;78.97
34374;BME280;20637;55.770;37.592;2022-09-30T04:11:12;99525.63;;;11.44;79.22
34374;BME280;20637;55.770;37.592;2022-09-30T04:13:38;99523.59;;;11.46;79.01
34374;BME280;20637;55.770;37.592;2022-09-30T04:16:05;99531.50;;;11.48;79.11
34374;BME280;20637;55.770;37.592;2022-09-30T04:18:36;99522.41;;;11.49;78.80
34374;BME280;20637;55.770;37.592;2022-09-30T04:21:11;99531.34;;;11.50;78.73
34374;BME280;20637;55.770;37.592;2022-09-30T04:23:41;99534.06;;;11.50;78.64
34374;BME280;20637;55.770;37.592;2022-09-30T04:26:10;99538.59;;;11.49;78.74
34374;BME280;20637;55.770;37.592;2022-09-30T04:28:37;99536.41;;;11.53;78.68
34374;BME280;20637;55.770;37.592;2022-09-30T04:31:04;99537.72;;;11.57;78.52
34374;BME280;20637;55.770;37.592;2022-09-30T04:33:31;99534.66;;;11.60;78.74
34374;BME280;20637;55.770;37.592;2022-09-30T04:35:58;99530.47;;;11.57;78.60
34374;BME280;20637;55.770;37.592;2022-09-30T04:38:25;99542.13;;;11.58;78.45
34374;BME280;20637;55.770;37.592;2022-09-30T04:40:51;99534.66;;;11.60;78.47
34374;BME280;20637;55.770;37.592;2022-09-30T04:43:17;99536.84;;;11.64;78.20
34374;BME280;20637;55.770;37.592;2022-09-30T04:45:44;99538.34;;;11.67;78.14
34374;BME280;20637;55.770;37.592;2022-09-30T04:48:12;99530.06;;;11.68;77.91
34374;BME280;20637;55.770;37.592;2022-09-30T04:50:38;99529.91;;;11.70;78.03
34374;BME280;20637;55.770;37.592;2022-09-30T04:53:06;99530.72;;;11.70;77.42
34374;BME280;20637;55.770;37.592;2022-09-30T04:55:32;99526.66;;;11.74;77.62
34374;BME280;20637;55.770;37.592;2022-09-30T04:57:57;99533.59;;;11.77;77.60
34374;BME280;20637;55.770;37.592;2022-09-30T05:00:23;99544.22;;;11.78;77.09
34374;BME280;20637;55.770;37.592;2022-09-30T05:02:51;99544.69;;;11.82;76.85
34374;BME280;20637;55.770;37.592;2022-09-30T05:05:17;99536.06;;;11.86;77.07
34374;BME280;20637;55.770;37.592;2022-09-30T05:07:43;99548.19;;;11.90;77.01
34374;BME280;20637;55.770;37.592;2022-09-30T05:10:09;99538.41;;;11.89;76.60
34374;BME280;20637;55.770;37.592;2022-09-30T05:12:37;99532.34;;;11.87;76.61
34374;BME280;20637;55.770;37.592;2022-09-30T05:15:04;99535.69;;;11.89;76.51
34374;BME280;20637;55.770;37.592;2022-09-30T05:17:30;99533.84;;;11.90;76.52
34374;BME280;20637;55.770;37.592;2022-09-30T05:19:56;99537.75;;;11.87;75.91
34374;BME280;20637;55.770;37.592;2022-09-30T05:22:22;99515.81;;;11.82;75.86
34374;BME280;20637;55.770;37.592;2022-09-30T05:24:52;99523.06;;;11.82;76.27
34374;BME280;20637;55.770;37.592;2022-09-30T05:27:22;99523.56;;;11.85;76.00
34374;BME280;20637;55.770;37.592;2022-09-30T05:29:48;99529.81;;;11.86;76.00
34374;BME280;20637;55.770;37.592;2022-09-30T05:32:14;99526.63;;;11.82;75.64
34374;BME280;20637;55.770;37.592;2022-09-30T05:34:40;99532.34;;;11.87;75.82
34374;BME280;20637;55.770;37.592;2022-09-30T05:37:07;99537.59;;;11.89;76.09
34374;BME280;20637;55.770;37.592;2022-09-30T05:39:34;99539.06;;;11.91;76.05
34374;BME280;20637;55.770;37.592;2022-09-30T05:42:01;99542.44;;;11.93;75.53
34374;BME280;20637;55.770;37.592;2022-09-30T05:44:26;99544.81;;;11.97;75.79
34374;BME280;20637;55.770;37.592;2022-09-30T05:46:52;99552.19;;;12.03;75.26
34374;BME280;20637;55.770;37.592;2022-09-30T05:49:18;99546.03;;;12.09;75.97
34374;BME280;20637;55.770;37.592;2022-09-30T05:51:43;99551.97;;;12.12;75.54
34374;BME280;20637;55.770;37.592;2022-09-30T05:54:10;99555.81;;;12.18;74.96
34374;BME280;20637;55.770;37.592;2022-09-30T05:56:36;99552.72;;;12.21;74.80
34374;BME280;20637;55.770;37.592;2022-09-30T05:59:05;99553.56;;;12.21;75.09
34374;BME280;20637;55.770;37.592;2022-09-30T06:01:31;99548.00;;;12.23;74.60
34374;BME280;20637;55.770;37.592;2022-09-30T06:03:58;99542.22;;;12.26;74.70
34374;BME280;20637;55.770;37.592;2022-09-30T06:06:24;99541.84;;;12.29;74.67
34374;BME280;20637;55.770;37.592;2022-09-30T06:08:50;99540.28;;;12.34;74.16
34374;BME280;20637;55.770;37.592;2022-09-30T06:11:18;99540.94;;;12.36;74.04
34374;BME280;20637;55.770;37.592;2022-09-30T06:13:46;99537.38;;;12.36;73.42
34374;BME280;20637;55.770;37.592;2022-09-30T06:16:14;99535.72;;;12.35;73.36
34374;BME280;20637;55.770;37.592;2022-09-30T06:18:40;99537.38;;;12.36;73.64
34374;BME280;20637;55.770;37.592;2022-09-30T06:21:08;99540.94;;;12.36;73.44
34374;BME280;20637;55.770;37.592;2022-09-30T06:23:35;99542.44;;;12.39;73.34
34374;BME280;20637;55.770;37.592;2022-09-30T06:26:02;99545.44;;;12.44;73.73
34374;BME280;20637;55.770;37.592;2022-09-30T06:28:28;99542.38;;;12.47;73.14
34374;BME280;20637;55.770;37.592;2022-09-30T06:30:54;99539.47;;;12.49;73.35
34374;BME280;20637;55.770;37.592;2022-09-30T06:33:20;99544.72;;;12.50;72.65
34374;BME280;20637;55.770;37.592;2022-09-30T06:35:46;99530.50;;;12.48;72.56
34374;BME280;20637;55.770;37.592;2022-09-30T06:38:13;99543.50;;;12.53;72.79
34374;BME280;20637;55.770;37.592;2022-09-30T06:40:42;99540.91;;;12.59;72.91
34374;BME280;20637;55.770;37.592;2022-09-30T06:43:08;99534.94;;;12.64;73.23
34374;BME280;20637;55.770;37.592;2022-09-30T06:45:36;99540.28;;;12.72;72.84
34374;BME280;20637;55.770;37.592;2022-09-30T06:48:03;99545.16;;;12.76;72.58
34374;BME280;20637;55.770;37.592;2022-09-30T06:50:30;99549.16;;;12.80;72.65
34374;BME280;20637;55.770;37.592;2022-09-30T06:53:01;99545.25;;;12.83;71.75
34374;BME280;20637;55.770;37.592;2022-09-30T06:55:28;99545.53;;;12.88;71.85
34374;BME280;20637;55.770;37.592;2022-09-30T06:57:55;99554.31;;;12.90;71.35
34374;BME280;20637;55.770;37.592;2022-09-30T07:00:22;99560.78;;;12.89;71.53
34374;BME280;20637;55.770;37.592;2022-09-30T07:02:48;99556.53;;;12.86;71.92
34374;BME280;20637;55.770;37.592;2022-09-30T07:05:15;99557.88;;;12.90;71.23
34374;BME280;20637;55.770;37.592;2022-09-30T07:07:42;99559.84;;;12.97;71.96
34374;BME280;20637;55.770;37.592;2022-09-30T07:10:09;99556.22;;;13.04;71.36
34374;BME280;20637;55.770;37.592;2022-09-30T07:12:36;99553.75;;;13.09;71.59
34374;BME280;20637;55.770;37.592;2022-09-30T07:15:02;99551.75;;;13.11;71.19
34374;BME280;20637;55.770;37.592;2022-09-30T07:17:29;99549.13;;;13.18;71.12
34374;BME280;20637;55.770;37.592;2022-09-30T07:19:54;99557.38;;;13.24;71.38
34374;BME280;20637;55.770;37.592;2022-09-30T07:22:20;99554.66;;;13.39;70.69
34374;BME280;20637;55.770;37.592;2022-09-30T07:24:53;99556.50;;;13.53;70.85
34374;BME280;20637;55.770;37.592;2022-09-30T07:27:20;99556.22;;;13.63;70.06
34374;BME280;20637;55.770;37.592;2022-09-30T07:29:46;99560.94;;;13.75;70.41
34374;BME280;20637;55.770;37.592;2022-09-30T07:32:12;99558.59;;;13.87;70.11
34374;BME280;20637;55.770;37.592;2022-09-30T07:34:38;99559.31;;;13.96;69.39
34374;BME280;20637;55.770;37.592;2022-09-30T07:37:10;99554.16;;;14.01;69.17
34374;BME280;20637;55.770;37.592;2022-09-30T07:39:37;99559.19;;;14.04;69.18
34374;BME280;20637;55.770;37.592;2022-09-30T07:42:03;99553.78;;;14.04;69.33
34374;BME280;20637;55.770;37.592;2022-09-30T07:44:30;99550.66;;;14.07;68.86
34374;BME280;20637;55.770;37.592;2022-09-30T07:46:56;99544.28;;;14.14;68.97
34374;BME280;20637;55.770;37.592;2022-09-30T07:49:23;99545.84;;;14.23;69.01
34374;BME280;20637;55.770;37.592;2022-09-30T07:51:54;99560.03;;;14.40;68.38
34374;BME280;20637;55.770;37.592;2022-09-30T07:54:23;99556.13;;;14.49;68.48
34374;BME280;20637;55.770;37.592;2022-09-30T07:56:50;99560.41;;;14.58;68.14
34374;BME280;20637;55.770;37.592;2022-09-30T07:59:17;99559.16;;;14.61;67.64
34374;BME280;20637;55.770;37.592;2022-09-30T08:01:43;99564.41;;;14.62;67.74
34374;BME280;20637;55.770;37.592;2022-09-30T08:04:11;99559.16;;;14.61;68.06
34374;BME280;20637;55.770;37.592;2022-09-30T08:06:43;99552.44;;;14.57;67.93
34374;BME280;20637;55.770;37.592;2022-09-30T08:09:10;99551.22;;;14.59;68.01
34374;BME280;20637;55.770;37.592;2022-09-30T08:11:37;99548.97;;;14.63;68.41
34374;BME280;20637;55.770;37.592;2022-09-30T08:14:03;99545.25;;;14.70;68.29
34374;BME280;20637;55.770;37.592;2022-09-30T08:16:30;99548.84;;;14.77;68.31
34374;BME280;20637;55.770;37.592;2022-09-30T08:19:00;99541.56;;;14.78;67.88
34374;BME280;20637;55.770;37.592;2022-09-30T08:21:27;99548.00;;;14.77;67.58
34374;BME280;20637;55.770;37.592;2022-09-30T08:23:53;99539.03;;;14.76;67.87
34374;BME280;20637;55.770;37.592;2022-09-30T08:26:20;99546.78;;;14.79;68.32
34374;BME280;20637;55.770;37.592;2022-09-30T08:28:46;99542.00;;;14.82;68.16
34374;BME280;20637;55.770;37.592;2022-09-30T08:31:18;99543.03;;;14.81;68.53
34374;BME280;20637;55.770;37.592;2022-09-30T08:33:44;99524.59;;;14.76;68.68
34374;BME280;20637;55.770;37.592;2022-09-30T08:36:15;99522.94;;;14.75;68.86
34374;BME280;20637;55.770;37.592;2022-09-30T08:38:42;99524.19;;;14.79;68.65
34374;BME280;20637;55.770;37.592;2022-09-30T08:46:46;99530.69;;;15.06;68.68
34374;BME280;20637;55.770;37.592;2022-09-30T08:52:27;99535.91;;;15.07;68.77
34374;BME280;20637;55.770;37.592;2022-09-30T08:54:55;99539.13;;;15.17;68.67
34374;BME280;20637;55.770;37.592;2022-09-30T08:57:22;99528.28;;;15.31;68.56
34374;BME280;20637;55.770;37.592;2022-09-30T08:59:55;99523.97;;;15.43;68.62
34374;BME280;20637;55.770;37.592;2022-09-30T09:02:25;99524.88;;;15.50;68.29
34374;BME280;20637;55.770;37.592;2022-09-30T09:04:55;99524.69;;;15.58;68.28
34374;BME280;20637;55.770;37.592;2022-09-30T09:16:03;99522.88;;;15.71;68.42
34374;BME280;20637;55.770;37.592;2022-09-30T09:19:02;99515.97;;;15.76;68.36
34374;BME280;20637;55.770;37.592;2022-09-30T09:24:02;99519.13;;;15.79;68.27
34374;BME280;20637;55.770;37.592;2022-09-30T09:26:34;99515.53;;;15.72;68.42
34374;BME280;20637;55.770;37.592;2022-09-30T09:29:46;99517.19;;;15.66;68.75
34374;BME280;20637;55.770;37.592;2022-09-30T09:31:55;99519.91;;;15.60;69.16
34374;BME280;20637;55.770;37.592;2022-09-30T09:34:24;99514.66;;;15.58;69.48
34374;BME280;20637;55.770;37.592;2022-09-30T09:37:09;99533.28;;;15.61;69.50
34374;BME280;20637;55.770;37.592;2022-09-30T09:40:02;99525.97;;;15.68;69.92
34374;BME280;20637;55.770;37.592;2022-09-30T09:47:34;99524.13;;;15.76;70.04
34374;BME280;20637;55.770;37.592;2022-09-30T09:50:02;99530.66;;;15.81;70.07
34374;BME280;20637;55.770;37.592;2022-09-30T09:55:16;99528.75;;;15.82;70.17
34374;BME280;20637;55.770;37.592;2022-09-30T09:57:43;99520.00;;;15.86;70.25
34374;BME280;20637;55.770;37.592;2022-09-30T10:03:19;99519.81;;;15.94;70.69
34374;BME280;20637;55.770;37.592;2022-09-30T10:08:31;99523.38;;;16.01;70.54
34374;BME280;20637;55.770;37.592;2022-09-30T10:10:59;99527.16;;;16.07;70.80
34374;BME280;20637;55.770;37.592;2022-09-30T10:13:31;99514.81;;;16.11;70.66
34374;BME280;20637;55.770;37.592;2022-09-30T10:16:04;99505.41;;;16.20;70.68
34374;BME280;20637;55.770;37.592;2022-09-30T10:18:32;99505.41;;;16.27;70.51
34374;BME280;20637;55.770;37.592;2022-09-30T10:21:26;99505.84;;;16.37;70.68
34374;BME280;20637;55.770;37.592;2022-09-30T10:23:53;99510.66;;;16.48;70.28
34374;BME280;20637;55.770;37.592;2022-09-30T10:26:21;99507.34;;;16.65;70.45
34374;BME280;20637;55.770;37.592;2022-09-30T10:28:49;99499.38;;;16.77;70.19
34374;BME280;20637;55.770;37.592;2022-09-30T10:34:00;99500.00;;;16.86;69.54
34374;BME280;20637;55.770;37.592;2022-09-30T10:36:32;99503.16;;;16.83;69.77
34374;BME280;20637;55.770;37.592;2022-09-30T10:39:06;99503.97;;;16.77;69.56
34374;BME280;20637;55.770;37.592;2022-09-30T10:41:35;99502.53;;;16.67;69.83
34374;BME280;20637;55.770;37.592;2022-09-30T10:44:04;99505.88;;;16.70;70.17
34374;BME280;20637;55.770;37.592;2022-09-30T10:46:37;99514.47;;;16.80;70.32
34374;BME280;20637;55.770;37.592;2022-09-30T10:49:33;99502.28;;;16.89;69.74
34374;BME280;20637;55.770;37.592;2022-09-30T10:52:02;99512.16;;;16.90;69.96
34374;BME280;20637;55.770;37.592;2022-09-30T10:54:54;99508.78;;;16.88;69.91
34374;BME280;20637;55.770;37.592;2022-09-30T10:57:26;99510.06;;;16.85;69.85
34374;BME280;20637;55.770;37.592;2022-09-30T11:00:13;99505.66;;;16.91;70.18
34374;BME280;20637;55.770;37.592;2022-09-30T11:03:05;99507.50;;;17.03;69.73
34374;BME280;20637;55.770;37.592;2022-09-30T11:05:40;99503.94;;;17.09;69.95
34374;BME280;20637;55.770;37.592;2022-09-30T11:08:18;99503.94;;;17.09;69.54
34374;BME280;20637;55.770;37.592;2022-09-30T11:21:09;99503.97;;;17.03;70.06
34374;BME280;20637;55.770;37.592;2022-09-30T11:23:51;99493.19;;;17.14;69.93
34374;BME280;20637;55.770;37.592;2022-09-30T11:53:10;99511.38;;;17.47;68.96
34374;BME280;20637;55.770;37.592;2022-09-30T11:56:00;99522.03;;;17.55;68.81
34374;BME280;20637;55.770;37.592;2022-09-30T11:58:37;99523.31;;;17.52;68.26
34374;BME280;20637;55.770;37.592;2022-09-30T12:01:18;99529.19;;;17.49;68.77
34374;BME280;20637;55.770;37.592;2022-09-30T12:03:57;99523.31;;;17.46;68.56
34374;BME280;20637;55.770;37.592;2022-09-30T12:06:32;99528.81;;;17.39;68.66
34374;BME280;20637;55.770;37.592;2022-09-30T12:09:10;99536.78;;;17.34;68.37
34374;BME280;20637;55.770;37.592;2022-09-30T12:11:52;99526.75;;;17.28;68.85
34374;BME280;20637;55.770;37.592;2022-09-30T12:14:54;99526.13;;;17.26;68.77
34374;BME280;20637;55.770;37.592;2022-09-30T12:17:32;99519.41;;;17.29;69.25
34374;BME280;20637;55.770;37.592;2022-09-30T12:20:06;99527.81;;;17.34;69.02
34374;BME280;20637;55.770;37.592;2022-09-30T12:22:40;99524.41;;;17.38;68.83
34374;BME280;20637;55.770;37.592;2022-09-30T12:25:20;99520.00;;;17.44;68.95
34374;BME280;20637;55.770;37.592;2022-09-30T12:27:58;99521.00;;;17.49;68.76
34374;BME280;20637;55.770;37.592;2022-09-30T12:30:49;99531.50;;;17.52;68.13
34374;BME280;20637;55.770;37.592;2022-09-30T12:33:23;99524.56;;;17.50;68.66
34374;BME280;20637;55.770;37.592;2022-09-30T12:38:57;99524.00;;;17.41;68.75
34374;BME280;20637;55.770;37.592;2022-09-30T12:44:42;99526.91;;;17.53;68.70
34374;BME280;20637;55.770;37.592;2022-09-30T12:49:54;99526.25;;;17.57;68.87
34374;BME280;20637;55.770;37.592;2022-09-30T12:52:23;99526.03;;;17.66;68.99
34374;BME280;20637;55.770;37.592;2022-09-30T12:54:56;99524.94;;;17.73;68.62
34374;BME280;20637;55.770;37.592;2022-09-30T12:57:27;99529.31;;;17.81;68.99
34374;BME280;20637;55.770;37.592;2022-09-30T13:00:04;99519.22;;;17.88;68.42
34374;BME280;20637;55.770;37.592;2022-09-30T13:02:37;99524.44;;;17.89;68.63
34374;BME280;20637;55.770;37.592;2022-09-30T13:05:37;99512.47;;;17.90;68.45
34374;BME280;20637;55.770;37.592;2022-09-30T13:10:45;99521.75;;;17.83;68.33
34374;BME280;20637;55.770;37.592;2022-09-30T13:15:38;99524.38;;;17.65;68.48
34374;BME280;20637;55.770;37.592;2022-09-30T13:23:44;99529.63;;;17.46;69.28
34374;BME280;20637;55.770;37.592;2022-09-30T13:34:12;99536.38;;;17.37;69.72
34374;BME280;20637;55.770;37.592;2022-09-30T13:39:29;99534.94;;;17.28;70.02
34374;BME280;20637;55.770;37.592;2022-09-30T13:47:05;99539.13;;;17.24;70.86
34374;BME280;20637;55.770;37.592;2022-09-30T13:49:39;99548.56;;;17.28;70.81
34374;BME280;20637;55.770;37.592;2022-09-30T13:52:14;99547.94;;;17.26;70.52
34374;BME280;20637;55.770;37.592;2022-09-30T13:54:44;99551.09;;;17.23;70.75
34374;BME280;20637;55.770;37.592;2022-09-30T13:57:18;99563.88;;;17.23;71.07
34374;BME280;20637;55.770;37.592;2022-09-30T14:00:02;99556.13;;;17.20;70.91
34374;BME280;20637;55.770;37.592;2022-09-30T14:03:17;99559.50;;;17.15;70.79
34374;BME280;20637;55.770;37.592;2022-09-30T14:05:47;99555.75;;;17.09;70.91
34374;BME280;20637;55.770;37.592;2022-09-30T14:11:32;99560.16;;;16.97;71.25
34374;BME280;20637;55.770;37.592;2022-09-30T14:22:17;99573.78;;;16.84;72.07
34374;BME280;20637;55.770;37.592;2022-09-30T14:24:45;99577.59;;;16.83;72.05
34374;BME280;20637;55.770;37.592;2022-09-30T14:30:05;99580.09;;;16.85;72.76
34374;BME280;20637;55.770;37.592;2022-09-30T14:33:01;99571.91;;;16.85;72.82
34374;BME280;20637;55.770;37.592;2022-09-30T14:35:33;99575.66;;;16.84;72.68
34374;BME280;20637;55.770;37.592;2022-09-30T14:40:38;99588.06;;;16.80;72.67
34374;BME280;20637;55.770;37.592;2022-09-30T14:43:10;99581.13;;;16.77;73.09
34374;BME280;20637;55.770;37.592;2022-09-30T14:45:41;99586.38;;;16.79;72.96
34374;BME280;20637;55.770;37.592;2022-09-30T14:48:20;99589.97;;;16.79;73.21
34374;BME280;20637;55.770;37.592;2022-09-30T14:50:52;99596.25;;;16.80;72.91
34374;BME280;20637;55.770;37.592;2022-09-30T14:55:56;99589.72;;;16.74;72.88
34374;BME280;20637;55.770;37.592;2022-09-30T14:58:39;99600.22;;;16.71;72.91
34374;BME280;20637;55.770;37.592;2022-09-30T15:01:13;99598.31;;;16.64;72.98
34374;BME280;20637;55.770;37.592;2022-09-30T15:03:44;99603.34;;;16.61;73.08
34374;BME280;20637;55.770;37.592;2022-09-30T15:06:23;99602.91;;;16.57;73.27
34374;BME280;20637;55.770;37.592;2022-09-30T15:08:52;99595.56;;;16.51;73.24
34374;BME280;20637;55.770;37.592;2022-09-30T15:11:24;99608.75;;;16.48;73.58
34374;BME280;20637;55.770;37.592;2022-09-30T15:14:05;99598.28;;;16.45;73.63
34374;BME280;20637;55.770;37.592;2022-09-30T15:16:32;99610.22;;;16.44;73.70
34374;BME280;20637;55.770;37.592;2022-09-30T15:18:58;99605.59;;;16.44;73.56
34374;BME280;20637;55.770;37.592;2022-09-30T15:21:26;99623.00;;;16.50;73.81
34374;BME280;20637;55.770;37.592;2022-09-30T15:23:57;99617.97;;;16.47;73.80
34374;BME280;20637;55.770;37.592;2022-09-30T15:26:26;99621.09;;;16.44;74.01
34374;BME280;20637;55.770;37.592;2022-09-30T15:28:52;99623.19;;;16.42;73.96
34374;BME280;20637;55.770;37.592;2022-09-30T15:31:27;99626.13;;;16.40;73.82
34374;BME280;20637;55.770;37.592;2022-09-30T15:34:10;99622.75;;;16.38;74.30
34374;BME280;20637;55.770;37.592;2022-09-30T15:36:37;99629.03;;;16.32;74.55
34374;BME280;20637;55.770;37.592;2022-09-30T15:39:04;99635.94;;;16.28;74.58
34374;BME280;20637;55.770;37.592;2022-09-30T15:41:38;99641.56;;;16.27;74.73
34374;BME280;20637;55.770;37.592;2022-09-30T15:44:18;99647.63;;;16.22;74.75
34374;BME280;20637;55.770;37.592;2022-09-30T15:47:05;99649.09;;;16.18;74.76
34374;BME280;20637;55.770;37.592;2022-09-30T15:49:44;99655.16;;;16.13;75.13
34374;BME280;20637;55.770;37.592;2022-09-30T15:54:53;99655.34;;;16.05;75.57
34374;BME280;20637;55.770;37.592;2022-09-30T15:57:45;99658.47;;;16.02;75.84
34374;BME280;20637;55.770;37.592;2022-09-30T16:00:35;99659.50;;;16.01;76.17
34374;BME280;20637;55.770;37.592;2022-09-30T16:03:12;99662.41;;;16.00;76.13
34374;BME280;20637;55.770;37.592;2022-09-30T16:05:44;99663.06;;;16.02;76.30
34374;BME280;20637;55.770;37.592;2022-09-30T16:08:25;99650.50;;;16.01;76.42
34374;BME280;20637;55.770;37.592;2022-09-30T16:10:55;99655.50;;;15.97;76.30
34374;BME280;20637;55.770;37.592;2022-09-30T16:13:26;99670.16;;;15.96;76.89
34374;BME280;20637;55.770;37.592;2022-09-30T16:15:54;99663.03;;;15.95;76.59
34374;BME280;20637;55.770;37.592;2022-09-30T16:18:23;99664.28;;;15.93;76.59